Washington, DC (20088)

9:52 AM EDT on October 31, 2014 (GMT -0400)
Somerset | Change Station
CLOSE
Current Station
Personal Weather Station
Location: Chevy Chase, MD
Elevation: 330 ft
Nearby Weather Stations

Elev 330 ft 38.97 °N, 77.09 °W | Updated 2 minutes ago

Overcast
Overcast
46.4 °F
Feels Like 46 °F
N
0.0
Wind Variable Wind from NNE
Gusts 4.0 mph

Today
High -- | Low -- °F
--% Chance of Precip.
Yesterday
High -- | Low -- °F
Precip. -- in
7:34 AM 6:08 PM
First Quarter, 55% visible
Pressure 30.00 in
Visibility 10.0 miles
Clouds Overcast 6000 ft
Windchill 46 °F
Dew Point 42 °F
Humidity 85%
Rainfall 0.00 in
Snow Depth Not available.
UV 0 out of 12
Pollen .80 out of 12
Air Quality Not available.
Flu Activity Not available.
METAR KCGS 311335Z AUTO 00000KT 10SM OVC060 08/06 A3000 RMK AO1

More Conditions Fewer Conditions

Pressure 30.00 in
Visibility 10.0 miles
Clouds Overcast 6000 ft
Windchill 46 °F
Dew Point 42 °F
Humidity 85%
Rainfall 0.00 in
Snow Depth Not available.
UV 0 out of 12
Pollen .80 out of 12
Air Quality Not available.
Flu Activity Not available.
METAR KCGS 311335Z AUTO 00000KT 10SM OVC060 08/06 A3000 RMK AO1

More Conditions Fewer Conditions

10-Day Weather Forecast

Almanac

Astronomy

Oct. 31, 2014 Rise Set
Actual Time
Civil Twilight
Nautical Twilight
Astronomical Twilight
Moon
Length of Visible Light
Length of Day
Tomorrow will be .
, % of the Moon is Illuminated

Today's Extremes

State Highs State Lows

Community

WunderPhotos

Upload Photos

1,766,612 photos uploaded!

WunderBlogs® & News

Nearby

Air Quality

  Air Quality AQ Index Pollutant
Not available.

Snow Depth

Station Depth Elevation

Earthquake Activity

City Distance Mag. Time & Date
Minimum magnitude displayed is 2.5.

Coastal Water Temperatures

Place Temperature

Nearby Weather Stations